sensor_id;sensor_type;location;lat;lon;timestamp;temperature;humidity
4306;DHT22;2166;49.926;8.608;2022-07-18T00:02:11;16.10;63.70
4306;DHT22;2166;49.926;8.608;2022-07-18T00:04:39;16.10;64.80
4306;DHT22;2166;49.926;8.608;2022-07-18T00:07:08;16.10;64.70
4306;DHT22;2166;49.926;8.608;2022-07-18T00:09:37;16.10;64.10
4306;DHT22;2166;49.926;8.608;2022-07-18T00:12:06;16.10;63.90
4306;DHT22;2166;49.926;8.608;2022-07-18T00:14:36;16.00;64.10
4306;DHT22;2166;49.926;8.608;2022-07-18T00:17:05;16.00;64.20
4306;DHT22;2166;49.926;8.608;2022-07-18T00:19:36;16.00;64.50
4306;DHT22;2166;49.926;8.608;2022-07-18T00:22:05;15.90;64.80
4306;DHT22;2166;49.926;8.608;2022-07-18T00:24:33;15.90;64.60
4306;DHT22;2166;49.926;8.608;2022-07-18T00:27:04;15.90;64.90
4306;DHT22;2166;49.926;8.608;2022-07-18T00:29:34;15.90;65.30
4306;DHT22;2166;49.926;8.608;2022-07-18T00:32:04;15.90;65.60
4306;DHT22;2166;49.926;8.608;2022-07-18T00:34:34;15.80;66.40
4306;DHT22;2166;49.926;8.608;2022-07-18T00:37:03;15.80;66.70
4306;DHT22;2166;49.926;8.608;2022-07-18T00:39:31;15.70;66.50
4306;DHT22;2166;49.926;8.608;2022-07-18T00:41:59;15.70;66.40
4306;DHT22;2166;49.926;8.608;2022-07-18T00:44:28;15.70;66.30
4306;DHT22;2166;49.926;8.608;2022-07-18T00:46:58;15.70;66.50
4306;DHT22;2166;49.926;8.608;2022-07-18T00:49:28;15.70;66.20
4306;DHT22;2166;49.926;8.608;2022-07-18T00:51:58;15.70;66.20
4306;DHT22;2166;49.926;8.608;2022-07-18T00:54:26;15.70;65.90
4306;DHT22;2166;49.926;8.608;2022-07-18T00:56:54;15.60;65.90
4306;DHT22;2166;49.926;8.608;2022-07-18T00:59:23;15.60;66.20
4306;DHT22;2166;49.926;8.608;2022-07-18T01:02:12;15.50;66.40
4306;DHT22;2166;49.926;8.608;2022-07-18T01:04:39;15.50;66.30
4306;DHT22;2166;49.926;8.608;2022-07-18T01:07:09;15.40;66.40
4306;DHT22;2166;49.926;8.608;2022-07-18T01:09:38;15.40;66.30
4306;DHT22;2166;49.926;8.608;2022-07-18T01:12:07;15.40;66.40
4306;DHT22;2166;49.926;8.608;2022-07-18T01:14:37;15.30;66.50
4306;DHT22;2166;49.926;8.608;2022-07-18T01:17:12;15.30;66.50
4306;DHT22;2166;49.926;8.608;2022-07-18T01:19:41;15.30;66.70
4306;DHT22;2166;49.926;8.608;2022-07-18T01:22:12;15.20;67.00
4306;DHT22;2166;49.926;8.608;2022-07-18T01:24:41;15.10;67.20
4306;DHT22;2166;49.926;8.608;2022-07-18T01:27:13;15.10;67.10
4306;DHT22;2166;49.926;8.608;2022-07-18T01:29:42;15.10;67.20
4306;DHT22;2166;49.926;8.608;2022-07-18T01:32:10;15.10;67.20
4306;DHT22;2166;49.926;8.608;2022-07-18T01:34:39;15.10;67.00
4306;DHT22;2166;49.926;8.608;2022-07-18T01:37:08;15.00;67.00
4306;DHT22;2166;49.926;8.608;2022-07-18T01:39:38;15.00;67.20
4306;DHT22;2166;49.926;8.608;2022-07-18T01:42:07;15.00;67.30
4306;DHT22;2166;49.926;8.608;2022-07-18T01:44:37;14.90;67.30
4306;DHT22;2166;49.926;8.608;2022-07-18T01:47:07;14.80;67.30
4306;DHT22;2166;49.926;8.608;2022-07-18T01:49:37;14.70;67.60
4306;DHT22;2166;49.926;8.608;2022-07-18T01:52:07;14.70;67.80
4306;DHT22;2166;49.926;8.608;2022-07-18T01:54:37;14.70;67.60
4306;DHT22;2166;49.926;8.608;2022-07-18T01:57:06;14.70;67.60
4306;DHT22;2166;49.926;8.608;2022-07-18T01:59:35;14.60;67.50
4306;DHT22;2166;49.926;8.608;2022-07-18T02:02:03;14.50;67.60
4306;DHT22;2166;49.926;8.608;2022-07-18T02:04:35;14.50;67.80
4306;DHT22;2166;49.926;8.608;2022-07-18T02:07:34;14.60;67.80
4306;DHT22;2166;49.926;8.608;2022-07-18T02:10:06;14.60;67.70
4306;DHT22;2166;49.926;8.608;2022-07-18T02:12:34;14.60;67.80
4306;DHT22;2166;49.926;8.608;2022-07-18T02:15:03;14.60;67.80
4306;DHT22;2166;49.926;8.608;2022-07-18T02:17:32;14.60;67.80
4306;DHT22;2166;49.926;8.608;2022-07-18T02:20:00;14.60;67.70
4306;DHT22;2166;49.926;8.608;2022-07-18T02:22:29;14.60;67.50
4306;DHT22;2166;49.926;8.608;2022-07-18T02:24:57;14.60;67.80
4306;DHT22;2166;49.926;8.608;2022-07-18T02:27:26;14.60;67.70
4306;DHT22;2166;49.926;8.608;2022-07-18T02:29:54;14.50;67.70
4306;DHT22;2166;49.926;8.608;2022-07-18T02:32:22;14.50;67.70
4306;DHT22;2166;49.926;8.608;2022-07-18T02:34:52;14.40;67.90
4306;DHT22;2166;49.926;8.608;2022-07-18T02:37:21;14.40;68.00
4306;DHT22;2166;49.926;8.608;2022-07-18T02:39:49;14.30;68.40
4306;DHT22;2166;49.926;8.608;2022-07-18T02:42:17;14.20;68.50
4306;DHT22;2166;49.926;8.608;2022-07-18T02:44:46;14.20;68.60
4306;DHT22;2166;49.926;8.608;2022-07-18T02:47:14;14.10;68.90
4306;DHT22;2166;49.926;8.608;2022-07-18T02:49:43;14.00;68.90
4306;DHT22;2166;49.926;8.608;2022-07-18T02:52:12;14.00;69.20
4306;DHT22;2166;49.926;8.608;2022-07-18T02:54:40;14.00;69.00
4306;DHT22;2166;49.926;8.608;2022-07-18T02:57:08;14.00;69.10
4306;DHT22;2166;49.926;8.608;2022-07-18T02:59:36;14.00;69.30
4306;DHT22;2166;49.926;8.608;2022-07-18T03:02:06;14.10;69.20
4306;DHT22;2166;49.926;8.608;2022-07-18T03:04:34;14.10;69.40
4306;DHT22;2166;49.926;8.608;2022-07-18T03:07:02;14.20;69.40
4306;DHT22;2166;49.926;8.608;2022-07-18T03:09:30;14.20;69.30
4306;DHT22;2166;49.926;8.608;2022-07-18T03:11:58;14.30;69.20
4306;DHT22;2166;49.926;8.608;2022-07-18T03:14:27;14.40;69.00
4306;DHT22;2166;49.926;8.608;2022-07-18T03:16:55;14.40;68.90
4306;DHT22;2166;49.926;8.608;2022-07-18T03:19:25;14.40;68.90
4306;DHT22;2166;49.926;8.608;2022-07-18T03:21:53;14.50;68.90
4306;DHT22;2166;49.926;8.608;2022-07-18T03:24:21;14.50;68.90
4306;DHT22;2166;49.926;8.608;2022-07-18T03:26:50;14.50;68.80
4306;DHT22;2166;49.926;8.608;2022-07-18T03:29:18;14.50;68.90
4306;DHT22;2166;49.926;8.608;2022-07-18T03:31:46;14.50;68.90
4306;DHT22;2166;49.926;8.608;2022-07-18T03:34:15;14.50;68.80
4306;DHT22;2166;49.926;8.608;2022-07-18T03:36:45;14.50;68.80
4306;DHT22;2166;49.926;8.608;2022-07-18T03:39:13;14.50;68.80
4306;DHT22;2166;49.926;8.608;2022-07-18T03:41:41;14.40;68.80
4306;DHT22;2166;49.926;8.608;2022-07-18T03:44:10;14.40;68.90
4306;DHT22;2166;49.926;8.608;2022-07-18T03:46:38;14.50;68.70
4306;DHT22;2166;49.926;8.608;2022-07-18T03:49:06;14.50;68.60
4306;DHT22;2166;49.926;8.608;2022-07-18T03:51:34;14.50;68.30
4306;DHT22;2166;49.926;8.608;2022-07-18T03:54:04;14.50;68.20
4306;DHT22;2166;49.926;8.608;2022-07-18T03:56:35;14.60;68.50
4306;DHT22;2166;49.926;8.608;2022-07-18T03:59:03;14.70;68.40
4306;DHT22;2166;49.926;8.608;2022-07-18T04:01:32;14.70;68.10
4306;DHT22;2166;49.926;8.608;2022-07-18T04:04:00;14.70;68.10
4306;DHT22;2166;49.926;8.608;2022-07-18T04:06:29;14.80;68.40
4306;DHT22;2166;49.926;8.608;2022-07-18T04:08:57;14.80;68.30
4306;DHT22;2166;49.926;8.608;2022-07-18T04:11:27;14.90;68.00
4306;DHT22;2166;49.926;8.608;2022-07-18T04:13:55;14.90;68.00
4306;DHT22;2166;49.926;8.608;2022-07-18T04:16:23;15.00;68.10
4306;DHT22;2166;49.926;8.608;2022-07-18T04:18:52;15.10;68.20
4306;DHT22;2166;49.926;8.608;2022-07-18T04:21:20;15.30;68.00
4306;DHT22;2166;49.926;8.608;2022-07-18T04:23:48;15.50;67.40
4306;DHT22;2166;49.926;8.608;2022-07-18T04:26:17;15.80;66.70
4306;DHT22;2166;49.926;8.608;2022-07-18T04:28:46;16.40;65.60
4306;DHT22;2166;49.926;8.608;2022-07-18T04:31:14;17.10;64.40
4306;DHT22;2166;49.926;8.608;2022-07-18T04:33:43;17.70;62.30
4306;DHT22;2166;49.926;8.608;2022-07-18T04:36:11;18.40;61.00
4306;DHT22;2166;49.926;8.608;2022-07-18T04:38:39;19.10;59.50
4306;DHT22;2166;49.926;8.608;2022-07-18T04:41:08;19.70;57.90
4306;DHT22;2166;49.926;8.608;2022-07-18T04:43:36;20.20;56.20
4306;DHT22;2166;49.926;8.608;2022-07-18T04:46:06;20.60;55.50
4306;DHT22;2166;49.926;8.608;2022-07-18T04:48:34;21.00;54.30
4306;DHT22;2166;49.926;8.608;2022-07-18T04:51:04;21.30;53.50
4306;DHT22;2166;49.926;8.608;2022-07-18T04:53:32;21.70;52.70
4306;DHT22;2166;49.926;8.608;2022-07-18T04:56:00;22.10;51.80
4306;DHT22;2166;49.926;8.608;2022-07-18T04:58:28;22.20;51.30
4306;DHT22;2166;49.926;8.608;2022-07-18T05:00:56;22.20;51.10
4306;DHT22;2166;49.926;8.608;2022-07-18T05:03:26;22.10;51.30
4306;DHT22;2166;49.926;8.608;2022-07-18T05:05:54;22.10;51.70
4306;DHT22;2166;49.926;8.608;2022-07-18T05:08:22;22.40;51.40
4306;DHT22;2166;49.926;8.608;2022-07-18T05:10:51;22.80;50.80
4306;DHT22;2166;49.926;8.608;2022-07-18T05:13:20;23.20;50.40
4306;DHT22;2166;49.926;8.608;2022-07-18T05:15:48;23.60;49.20
4306;DHT22;2166;49.926;8.608;2022-07-18T05:18:17;24.00;48.40
4306;DHT22;2166;49.926;8.608;2022-07-18T05:20:46;24.50;47.20
4306;DHT22;2166;49.926;8.608;2022-07-18T05:23:15;25.20;46.10
4306;DHT22;2166;49.926;8.608;2022-07-18T05:25:43;25.50;45.50
4306;DHT22;2166;49.926;8.608;2022-07-18T05:28:11;25.70;45.70
4306;DHT22;2166;49.926;8.608;2022-07-18T05:30:40;25.80;44.80
4306;DHT22;2166;49.926;8.608;2022-07-18T05:33:08;25.80;44.70
4306;DHT22;2166;49.926;8.608;2022-07-18T05:35:36;25.80;44.70
4306;DHT22;2166;49.926;8.608;2022-07-18T05:38:06;25.60;45.10
4306;DHT22;2166;49.926;8.608;2022-07-18T05:40:34;25.40;45.30
4306;DHT22;2166;49.926;8.608;2022-07-18T05:43:02;25.50;45.50
4306;DHT22;2166;49.926;8.608;2022-07-18T05:45:30;25.70;45.30
4306;DHT22;2166;49.926;8.608;2022-07-18T05:47:59;26.10;44.40
4306;DHT22;2166;49.926;8.608;2022-07-18T05:50:27;26.60;43.90
4306;DHT22;2166;49.926;8.608;2022-07-18T05:52:55;27.30;43.00
4306;DHT22;2166;49.926;8.608;2022-07-18T05:55:25;27.70;41.50
4306;DHT22;2166;49.926;8.608;2022-07-18T05:57:53;27.70;41.50
4306;DHT22;2166;49.926;8.608;2022-07-18T06:00:21;28.00;40.50
4306;DHT22;2166;49.926;8.608;2022-07-18T06:02:50;28.10;40.30
4306;DHT22;2166;49.926;8.608;2022-07-18T06:05:18;28.40;40.00
4306;DHT22;2166;49.926;8.608;2022-07-18T06:07:50;28.70;38.80
4306;DHT22;2166;49.926;8.608;2022-07-18T06:10:20;29.10;38.40
4306;DHT22;2166;49.926;8.608;2022-07-18T06:12:49;29.30;37.90
4306;DHT22;2166;49.926;8.608;2022-07-18T06:15:18;28.60;38.50
4306;DHT22;2166;49.926;8.608;2022-07-18T06:17:46;28.40;39.40
4306;DHT22;2166;49.926;8.608;2022-07-18T06:20:15;28.90;39.20
4306;DHT22;2166;49.926;8.608;2022-07-18T06:22:44;29.30;38.30
4306;DHT22;2166;49.926;8.608;2022-07-18T06:25:12;30.00;37.90
4306;DHT22;2166;49.926;8.608;2022-07-18T06:27:40;30.10;37.70
4306;DHT22;2166;49.926;8.608;2022-07-18T06:30:10;30.10;37.50
4306;DHT22;2166;49.926;8.608;2022-07-18T06:32:40;30.10;37.60
4306;DHT22;2166;49.926;8.608;2022-07-18T06:35:09;30.70;36.80
4306;DHT22;2166;49.926;8.608;2022-07-18T06:37:37;31.30;36.30
4306;DHT22;2166;49.926;8.608;2022-07-18T06:40:06;31.80;35.80
4306;DHT22;2166;49.926;8.608;2022-07-18T06:42:35;32.30;34.60
4306;DHT22;2166;49.926;8.608;2022-07-18T06:45:04;32.40;34.40
4306;DHT22;2166;49.926;8.608;2022-07-18T06:47:41;32.00;35.50
4306;DHT22;2166;49.926;8.608;2022-07-18T06:50:11;32.60;34.40
4306;DHT22;2166;49.926;8.608;2022-07-18T06:52:40;33.10;33.70
4306;DHT22;2166;49.926;8.608;2022-07-18T06:55:09;33.20;33.50
4306;DHT22;2166;49.926;8.608;2022-07-18T06:57:38;33.40;33.60
4306;DHT22;2166;49.926;8.608;2022-07-18T07:00:09;34.00;33.10
4306;DHT22;2166;49.926;8.608;2022-07-18T07:02:44;34.60;32.80
4306;DHT22;2166;49.926;8.608;2022-07-18T07:05:13;35.20;32.50
4306;DHT22;2166;49.926;8.608;2022-07-18T07:07:42;36.10;31.70
4306;DHT22;2166;49.926;8.608;2022-07-18T07:10:15;36.50;31.20
4306;DHT22;2166;49.926;8.608;2022-07-18T07:12:44;36.90;30.50
4306;DHT22;2166;49.926;8.608;2022-07-18T07:15:13;37.00;30.20
4306;DHT22;2166;49.926;8.608;2022-07-18T07:17:43;36.80;30.10
4306;DHT22;2166;49.926;8.608;2022-07-18T07:20:13;37.10;29.50
4306;DHT22;2166;49.926;8.608;2022-07-18T07:22:43;36.70;29.20
4306;DHT22;2166;49.926;8.608;2022-07-18T07:25:11;36.10;29.80
4306;DHT22;2166;49.926;8.608;2022-07-18T07:27:40;36.20;29.60
4306;DHT22;2166;49.926;8.608;2022-07-18T07:30:09;36.10;29.60
4306;DHT22;2166;49.926;8.608;2022-07-18T07:32:39;35.60;30.10
4306;DHT22;2166;49.926;8.608;2022-07-18T07:35:11;35.80;30.10
4306;DHT22;2166;49.926;8.608;2022-07-18T07:37:41;36.10;30.00
4306;DHT22;2166;49.926;8.608;2022-07-18T07:40:10;36.40;29.60
4306;DHT22;2166;49.926;8.608;2022-07-18T07:42:38;36.60;29.00
4306;DHT22;2166;49.926;8.608;2022-07-18T07:45:07;37.20;29.40
4306;DHT22;2166;49.926;8.608;2022-07-18T07:47:36;37.10;28.50
4306;DHT22;2166;49.926;8.608;2022-07-18T07:50:06;37.20;28.90
4306;DHT22;2166;49.926;8.608;2022-07-18T07:52:36;37.50;28.70
4306;DHT22;2166;49.926;8.608;2022-07-18T07:55:05;37.50;28.40
4306;DHT22;2166;49.926;8.608;2022-07-18T07:57:33;37.20;29.20
4306;DHT22;2166;49.926;8.608;2022-07-18T08:02:56;38.70;27.70
4306;DHT22;2166;49.926;8.608;2022-07-18T08:05:27;39.50;27.00
4306;DHT22;2166;49.926;8.608;2022-07-18T08:07:57;40.00;26.40
4306;DHT22;2166;49.926;8.608;2022-07-18T08:10:26;40.50;26.00
4306;DHT22;2166;49.926;8.608;2022-07-18T08:12:54;40.40;25.80
4306;DHT22;2166;49.926;8.608;2022-07-18T08:15:23;40.60;25.60
4306;DHT22;2166;49.926;8.608;2022-07-18T08:17:51;41.40;25.80
4306;DHT22;2166;49.926;8.608;2022-07-18T08:20:21;42.60;24.90
4306;DHT22;2166;49.926;8.608;2022-07-18T08:22:56;42.90;23.80
4306;DHT22;2166;49.926;8.608;2022-07-18T08:25:26;42.60;24.10
4306;DHT22;2166;49.926;8.608;2022-07-18T08:27:54;42.50;23.90
4306;DHT22;2166;49.926;8.608;2022-07-18T08:30:23;42.90;23.80
4306;DHT22;2166;49.926;8.608;2022-07-18T08:32:51;43.40;23.90
4306;DHT22;2166;49.926;8.608;2022-07-18T08:35:19;43.40;23.70
4306;DHT22;2166;49.926;8.608;2022-07-18T08:37:49;43.60;23.20
4306;DHT22;2166;49.926;8.608;2022-07-18T08:40:18;43.70;23.10
4306;DHT22;2166;49.926;8.608;2022-07-18T08:42:50;43.60;22.80
4306;DHT22;2166;49.926;8.608;2022-07-18T08:45:42;42.90;23.00
4306;DHT22;2166;49.926;8.608;2022-07-18T08:48:13;42.10;23.50
4306;DHT22;2166;49.926;8.608;2022-07-18T08:50:43;41.60;23.30
4306;DHT22;2166;49.926;8.608;2022-07-18T08:53:13;41.90;23.80
4306;DHT22;2166;49.926;8.608;2022-07-18T08:55:43;42.30;23.20
4306;DHT22;2166;49.926;8.608;2022-07-18T08:58:12;42.90;22.10
4306;DHT22;2166;49.926;8.608;2022-07-18T09:01:02;43.90;22.10
4306;DHT22;2166;49.926;8.608;2022-07-18T09:03:31;45.30;20.40
4306;DHT22;2166;49.926;8.608;2022-07-18T09:06:04;46.20;20.30
4306;DHT22;2166;49.926;8.608;2022-07-18T09:08:32;46.60;20.50
4306;DHT22;2166;49.926;8.608;2022-07-18T09:11:03;47.60;20.20
4306;DHT22;2166;49.926;8.608;2022-07-18T09:13:36;48.50;19.60
4306;DHT22;2166;49.926;8.608;2022-07-18T09:16:07;49.00;19.60
4306;DHT22;2166;49.926;8.608;2022-07-18T09:18:38;49.20;19.40
4306;DHT22;2166;49.926;8.608;2022-07-18T09:21:08;49.00;19.60
4306;DHT22;2166;49.926;8.608;2022-07-18T09:23:40;49.60;19.80
4306;DHT22;2166;49.926;8.608;2022-07-18T09:26:11;50.10;19.40
4306;DHT22;2166;49.926;8.608;2022-07-18T09:28:46;50.50;19.30
4306;DHT22;2166;49.926;8.608;2022-07-18T09:31:35;50.90;19.10
4306;DHT22;2166;49.926;8.608;2022-07-18T09:34:04;50.20;19.20
4306;DHT22;2166;49.926;8.608;2022-07-18T09:36:32;49.60;19.50
4306;DHT22;2166;49.926;8.608;2022-07-18T09:39:17;50.20;19.60
4306;DHT22;2166;49.926;8.608;2022-07-18T09:41:48;50.60;19.30
4306;DHT22;2166;49.926;8.608;2022-07-18T09:44:16;50.50;19.30
4306;DHT22;2166;49.926;8.608;2022-07-18T09:47:00;50.90;19.10
4306;DHT22;2166;49.926;8.608;2022-07-18T09:49:30;51.60;19.30
4306;DHT22;2166;49.926;8.608;2022-07-18T09:52:03;51.90;18.70
4306;DHT22;2166;49.926;8.608;2022-07-18T09:54:40;51.90;18.40
4306;DHT22;2166;49.926;8.608;2022-07-18T09:57:23;50.50;18.90
4306;DHT22;2166;49.926;8.608;2022-07-18T09:59:51;50.40;18.90
4306;DHT22;2166;49.926;8.608;2022-07-18T10:02:20;50.70;19.00
4306;DHT22;2166;49.926;8.608;2022-07-18T10:04:49;51.60;18.30
4306;DHT22;2166;49.926;8.608;2022-07-18T10:07:18;50.20;19.00
4306;DHT22;2166;49.926;8.608;2022-07-18T10:09:47;48.30;19.10
4306;DHT22;2166;49.926;8.608;2022-07-18T10:12:16;47.00;20.70
4306;DHT22;2166;49.926;8.608;2022-07-18T10:14:46;45.80;20.20
4306;DHT22;2166;49.926;8.608;2022-07-18T10:17:15;45.30;20.90
4306;DHT22;2166;49.926;8.608;2022-07-18T10:19:45;45.50;20.50
4306;DHT22;2166;49.926;8.608;2022-07-18T10:22:15;46.40;20.60
4306;DHT22;2166;49.926;8.608;2022-07-18T10:24:44;47.60;19.90
4306;DHT22;2166;49.926;8.608;2022-07-18T10:27:16;48.20;19.40
4306;DHT22;2166;49.926;8.608;2022-07-18T10:30:09;48.10;19.70
4306;DHT22;2166;49.926;8.608;2022-07-18T10:32:37;47.90;19.40
4306;DHT22;2166;49.926;8.608;2022-07-18T10:35:07;47.90;19.30
4306;DHT22;2166;49.926;8.608;2022-07-18T10:37:38;48.70;19.20
4306;DHT22;2166;49.926;8.608;2022-07-18T10:40:23;48.80;19.30
4306;DHT22;2166;49.926;8.608;2022-07-18T10:43:33;49.20;19.30
4306;DHT22;2166;49.926;8.608;2022-07-18T10:46:04;50.50;18.90
4306;DHT22;2166;49.926;8.608;2022-07-18T10:48:57;51.30;18.40
4306;DHT22;2166;49.926;8.608;2022-07-18T10:51:43;51.90;18.00
4306;DHT22;2166;49.926;8.608;2022-07-18T10:54:11;50.00;18.60
4306;DHT22;2166;49.926;8.608;2022-07-18T11:00:03;49.50;19.10
4306;DHT22;2166;49.926;8.608;2022-07-18T11:02:37;49.60;18.80
4306;DHT22;2166;49.926;8.608;2022-07-18T11:05:31;49.20;18.90
4306;DHT22;2166;49.926;8.608;2022-07-18T11:08:16;49.40;18.80
4306;DHT22;2166;49.926;8.608;2022-07-18T11:11:08;49.70;18.70
4306;DHT22;2166;49.926;8.608;2022-07-18T11:13:37;49.80;19.00
4306;DHT22;2166;49.926;8.608;2022-07-18T11:16:11;49.90;18.90
4306;DHT22;2166;49.926;8.608;2022-07-18T11:21:58;50.30;18.60
4306;DHT22;2166;49.926;8.608;2022-07-18T11:24:27;51.00;18.60
4306;DHT22;2166;49.926;8.608;2022-07-18T11:26:56;51.60;18.60
4306;DHT22;2166;49.926;8.608;2022-07-18T11:29:24;52.70;18.20
4306;DHT22;2166;49.926;8.608;2022-07-18T11:31:56;53.50;18.20
4306;DHT22;2166;49.926;8.608;2022-07-18T11:34:25;53.90;17.50
4306;DHT22;2166;49.926;8.608;2022-07-18T11:37:13;54.30;17.60
4306;DHT22;2166;49.926;8.608;2022-07-18T11:39:43;54.50;17.70
4306;DHT22;2166;49.926;8.608;2022-07-18T11:42:11;54.60;17.50
4306;DHT22;2166;49.926;8.608;2022-07-18T11:44:42;55.00;17.60
4306;DHT22;2166;49.926;8.608;2022-07-18T11:47:12;54.70;17.40
4306;DHT22;2166;49.926;8.608;2022-07-18T11:49:54;53.60;17.70
4306;DHT22;2166;49.926;8.608;2022-07-18T11:52:22;52.70;18.00
4306;DHT22;2166;49.926;8.608;2022-07-18T11:54:57;52.40;18.20
4306;DHT22;2166;49.926;8.608;2022-07-18T11:57:28;52.40;18.20
4306;DHT22;2166;49.926;8.608;2022-07-18T11:59:57;53.00;18.40
4306;DHT22;2166;49.926;8.608;2022-07-18T12:05:42;53.40;18.30
4306;DHT22;2166;49.926;8.608;2022-07-18T12:08:29;53.70;17.80
4306;DHT22;2166;49.926;8.608;2022-07-18T12:11:08;52.60;17.90
4306;DHT22;2166;49.926;8.608;2022-07-18T12:13:42;52.10;18.20
4306;DHT22;2166;49.926;8.608;2022-07-18T12:16:31;51.90;18.00
4306;DHT22;2166;49.926;8.608;2022-07-18T12:19:03;51.70;18.50
4306;DHT22;2166;49.926;8.608;2022-07-18T12:21:44;51.80;18.20
4306;DHT22;2166;49.926;8.608;2022-07-18T12:24:29;51.40;18.40
4306;DHT22;2166;49.926;8.608;2022-07-18T12:27:13;51.60;18.30
4306;DHT22;2166;49.926;8.608;2022-07-18T12:30:08;52.00;18.30
4306;DHT22;2166;49.926;8.608;2022-07-18T12:32:46;52.10;18.20
4306;DHT22;2166;49.926;8.608;2022-07-18T12:35:17;52.60;18.70
4306;DHT22;2166;49.926;8.608;2022-07-18T12:37:57;52.60;18.10
4306;DHT22;2166;49.926;8.608;2022-07-18T12:40:38;52.80;18.50
4306;DHT22;2166;49.926;8.608;2022-07-18T12:43:08;53.50;17.90
4306;DHT22;2166;49.926;8.608;2022-07-18T12:45:37;53.30;17.80
4306;DHT22;2166;49.926;8.608;2022-07-18T12:48:08;53.00;18.10
4306;DHT22;2166;49.926;8.608;2022-07-18T12:50:38;52.70;18.30
4306;DHT22;2166;49.926;8.608;2022-07-18T12:53:08;52.80;18.40
4306;DHT22;2166;49.926;8.608;2022-07-18T12:55:37;52.70;18.30
4306;DHT22;2166;49.926;8.608;2022-07-18T12:58:06;52.20;18.60
4306;DHT22;2166;49.926;8.608;2022-07-18T13:00:36;52.00;18.40
4306;DHT22;2166;49.926;8.608;2022-07-18T13:03:04;52.50;18.10
4306;DHT22;2166;49.926;8.608;2022-07-18T13:05:33;52.80;18.60
4306;DHT22;2166;49.926;8.608;2022-07-18T13:08:01;53.20;18.20
4306;DHT22;2166;49.926;8.608;2022-07-18T13:10:30;53.10;18.30
4306;DHT22;2166;49.926;8.608;2022-07-18T13:13:01;53.40;18.20
4306;DHT22;2166;49.926;8.608;2022-07-18T13:15:29;53.40;18.20
4306;DHT22;2166;49.926;8.608;2022-07-18T13:17:58;53.20;18.10
4306;DHT22;2166;49.926;8.608;2022-07-18T13:20:26;53.20;18.20
4306;DHT22;2166;49.926;8.608;2022-07-18T13:22:54;53.10;18.30
4306;DHT22;2166;49.926;8.608;2022-07-18T13:25:23;53.20;18.30
4306;DHT22;2166;49.926;8.608;2022-07-18T13:27:52;52.80;18.60
4306;DHT22;2166;49.926;8.608;2022-07-18T13:30:20;52.80;18.30
4306;DHT22;2166;49.926;8.608;2022-07-18T13:32:49;53.20;18.20
4306;DHT22;2166;49.926;8.608;2022-07-18T13:35:17;53.40;18.10
4306;DHT22;2166;49.926;8.608;2022-07-18T13:37:46;53.50;18.10
4306;DHT22;2166;49.926;8.608;2022-07-18T13:40:14;53.00;18.10
4306;DHT22;2166;49.926;8.608;2022-07-18T13:42:43;51.60;18.80
4306;DHT22;2166;49.926;8.608;2022-07-18T13:45:13;50.50;19.30
4306;DHT22;2166;49.926;8.608;2022-07-18T13:47:42;50.00;19.00
4306;DHT22;2166;49.926;8.608;2022-07-18T13:50:11;48.40;19.80
4306;DHT22;2166;49.926;8.608;2022-07-18T13:52:39;47.30;20.50
4306;DHT22;2166;49.926;8.608;2022-07-18T13:55:08;47.10;20.70
4306;DHT22;2166;49.926;8.608;2022-07-18T13:57:37;46.90;20.40
4306;DHT22;2166;49.926;8.608;2022-07-18T14:00:07;46.80;20.70
4306;DHT22;2166;49.926;8.608;2022-07-18T14:02:37;46.70;20.60
4306;DHT22;2166;49.926;8.608;2022-07-18T14:05:07;46.10;21.00
4306;DHT22;2166;49.926;8.608;2022-07-18T14:07:40;45.40;20.80
4306;DHT22;2166;49.926;8.608;2022-07-18T14:10:10;44.80;21.10
4306;DHT22;2166;49.926;8.608;2022-07-18T14:12:39;44.60;21.30
4306;DHT22;2166;49.926;8.608;2022-07-18T14:15:08;44.90;21.20
4306;DHT22;2166;49.926;8.608;2022-07-18T14:17:38;45.40;20.90
4306;DHT22;2166;49.926;8.608;2022-07-18T14:20:07;46.20;21.10
4306;DHT22;2166;49.926;8.608;2022-07-18T14:22:37;46.40;20.50
4306;DHT22;2166;49.926;8.608;2022-07-18T14:25:07;46.50;20.50
4306;DHT22;2166;49.926;8.608;2022-07-18T14:27:36;46.60;20.60
4306;DHT22;2166;49.926;8.608;2022-07-18T14:30:06;46.00;20.60
4306;DHT22;2166;49.926;8.608;2022-07-18T14:32:35;45.80;21.00
4306;DHT22;2166;49.926;8.608;2022-07-18T14:35:06;46.00;21.00
4306;DHT22;2166;49.926;8.608;2022-07-18T14:37:36;46.50;20.50
4306;DHT22;2166;49.926;8.608;2022-07-18T14:40:06;46.40;21.20
4306;DHT22;2166;49.926;8.608;2022-07-18T14:42:35;47.00;20.50
4306;DHT22;2166;49.926;8.608;2022-07-18T14:45:04;47.40;20.10
4306;DHT22;2166;49.926;8.608;2022-07-18T14:47:32;47.40;20.10
4306;DHT22;2166;49.926;8.608;2022-07-18T14:50:02;47.70;19.90
4306;DHT22;2166;49.926;8.608;2022-07-18T14:52:33;48.10;19.90
4306;DHT22;2166;49.926;8.608;2022-07-18T14:55:01;47.90;19.90
4306;DHT22;2166;49.926;8.608;2022-07-18T14:57:29;47.30;20.40
4306;DHT22;2166;49.926;8.608;2022-07-18T14:59:57;46.90;20.80
4306;DHT22;2166;49.926;8.608;2022-07-18T15:02:26;45.90;20.90
4306;DHT22;2166;49.926;8.608;2022-07-18T15:04:54;45.20;21.90
4306;DHT22;2166;49.926;8.608;2022-07-18T15:07:22;44.70;21.70
4306;DHT22;2166;49.926;8.608;2022-07-18T15:09:52;44.70;22.30
4306;DHT22;2166;49.926;8.608;2022-07-18T15:12:20;44.70;21.60
4306;DHT22;2166;49.926;8.608;2022-07-18T15:14:48;44.50;21.90
4306;DHT22;2166;49.926;8.608;2022-07-18T15:17:17;44.00;21.70
4306;DHT22;2166;49.926;8.608;2022-07-18T15:19:45;44.00;22.10
4306;DHT22;2166;49.926;8.608;2022-07-18T15:22:13;44.30;22.30
4306;DHT22;2166;49.926;8.608;2022-07-18T15:24:41;44.50;22.10
4306;DHT22;2166;49.926;8.608;2022-07-18T15:27:11;44.20;22.50
4306;DHT22;2166;49.926;8.608;2022-07-18T15:29:39;43.30;22.40
4306;DHT22;2166;49.926;8.608;2022-07-18T15:32:07;42.50;23.00
4306;DHT22;2166;49.926;8.608;2022-07-18T15:34:36;42.30;23.60
4306;DHT22;2166;49.926;8.608;2022-07-18T15:37:05;41.90;23.90
4306;DHT22;2166;49.926;8.608;2022-07-18T15:39:33;42.10;24.10
4306;DHT22;2166;49.926;8.608;2022-07-18T15:42:02;42.10;23.20
4306;DHT22;2166;49.926;8.608;2022-07-18T15:44:32;41.80;23.50
4306;DHT22;2166;49.926;8.608;2022-07-18T15:47:04;41.90;23.80
4306;DHT22;2166;49.926;8.608;2022-07-18T15:49:34;42.10;23.90
4306;DHT22;2166;49.926;8.608;2022-07-18T15:52:03;42.50;23.30
4306;DHT22;2166;49.926;8.608;2022-07-18T15:54:33;43.00;22.80
4306;DHT22;2166;49.926;8.608;2022-07-18T15:57:02;42.70;22.80
4306;DHT22;2166;49.926;8.608;2022-07-18T15:59:31;42.70;23.20
4306;DHT22;2166;49.926;8.608;2022-07-18T16:02:00;42.40;23.00
4306;DHT22;2166;49.926;8.608;2022-07-18T16:04:28;42.00;23.80
4306;DHT22;2166;49.926;8.608;2022-07-18T16:06:56;41.80;24.20
4306;DHT22;2166;49.926;8.608;2022-07-18T16:09:25;41.70;24.00
4306;DHT22;2166;49.926;8.608;2022-07-18T16:11:53;41.50;23.90
4306;DHT22;2166;49.926;8.608;2022-07-18T16:14:21;41.40;24.00
4306;DHT22;2166;49.926;8.608;2022-07-18T16:16:51;41.50;24.00
4306;DHT22;2166;49.926;8.608;2022-07-18T16:19:22;41.60;23.80
4306;DHT22;2166;49.926;8.608;2022-07-18T16:21:50;42.00;23.90
4306;DHT22;2166;49.926;8.608;2022-07-18T16:24:18;42.00;23.60
4306;DHT22;2166;49.926;8.608;2022-07-18T16:26:48;41.50;23.90
4306;DHT22;2166;49.926;8.608;2022-07-18T16:29:16;41.30;23.80
4306;DHT22;2166;49.926;8.608;2022-07-18T16:31:44;41.20;23.80
4306;DHT22;2166;49.926;8.608;2022-07-18T16:34:14;41.20;24.20
4306;DHT22;2166;49.926;8.608;2022-07-18T16:36:42;41.30;23.90